Time;durP1;ratioP1;P1;durP2;ratioP2;P2;SDS_P1;SDS_P2;PMS_P1;PMS_P2;Temp;Humidity;BMP_temperature;BMP_pressure;BME280_temperature;BME280_humidity;BME280_pressure;Samples;Min_cycle;Max_cycle;Signal;HPM_P1;HPM_P2
2021/09/06 00:00:35;;;;;;;1.93;1.00;;;;;;;5.97;70.58;100657.27;1719024;81;21808;-51
2021/09/06 00:03:01;;;;;;;3.63;1.30;;;;;;;5.93;70.44;100671.59;1722817;81;21065;-52
2021/09/06 00:05:28;;;;;;;4.83;1.47;;;;;;;5.87;70.53;100660.97;1723255;81;21412;-51
2021/09/06 00:07:56;;;;;;;3.13;1.30;;;;;;;5.83;70.67;100665.91;1722664;81;21180;-51
2021/09/06 00:10:37;;;;;;;4.40;1.00;;;;;;;5.79;70.74;100663.73;1720697;81;22604;-51
2021/09/06 00:13:05;;;;;;;1.90;0.90;;;;;;;5.74;70.64;100665.59;1722408;81;21405;-50
2021/09/06 00:15:32;;;;;;;1.50;0.80;;;;;;;5.73;70.70;100666.95;1723148;81;21081;-51
2021/09/06 00:18:01;;;;;;;1.83;0.90;;;;;;;5.69;70.77;100671.02;1724900;81;21153;-50
2021/09/06 00:20:29;;;;;;;1.97;0.87;;;;;;;5.68;70.89;100667.91;1725219;81;20903;-50
2021/09/06 00:22:57;;;;;;;2.67;0.77;;;;;;;5.69;71.00;100671.47;1720523;81;21136;-50
2021/09/06 00:25:24;;;;;;;2.07;0.87;;;;;;;5.70;70.93;100675.42;1721865;81;21580;-51
2021/09/06 00:27:52;;;;;;;1.67;0.90;;;;;;;5.72;70.90;100664.72;1721426;81;21092;-51
2021/09/06 00:30:18;;;;;;;2.73;1.00;;;;;;;5.73;70.85;100671.84;1721374;81;23345;-51
2021/09/06 00:32:46;;;;;;;1.57;1.00;;;;;;;5.74;70.87;100674.06;1718209;81;21077;-51
2021/09/06 00:35:14;;;;;;;3.03;1.00;;;;;;;5.73;70.78;100671.84;1720384;81;21131;-51
2021/09/06 00:37:41;;;;;;;2.40;1.17;;;;;;;5.70;70.67;100671.87;1721415;81;21085;-52
2021/09/06 00:40:09;;;;;;;1.53;1.20;;;;;;;5.65;70.69;100676.41;1718937;81;21088;-51
2021/09/06 00:42:37;;;;;;;1.40;1.00;;;;;;;5.61;70.76;100679.55;1722806;81;20980;-51
2021/09/06 00:45:05;;;;;;;1.43;0.90;;;;;;;5.55;70.70;100679.64;1723624;81;20965;-51
2021/09/06 00:47:34;;;;;;;3.03;1.33;;;;;;;5.51;70.71;100678.39;1725970;81;20990;-51
2021/09/06 00:50:06;;;;;;;3.33;0.90;;;;;;;5.47;70.76;100678.86;1720718;81;21389;-51
2021/09/06 00:52:30;;;;;;;2.83;1.00;;;;;;;5.46;70.89;100673.53;1724344;81;21353;-50
2021/09/06 00:54:56;;;;;;;2.43;0.97;;;;;;;5.45;71.02;100677.99;1723472;81;21342;-51
2021/09/06 00:57:23;;;;;;;4.13;0.83;;;;;;;5.46;71.07;100680.21;1724285;81;21422;-51
2021/09/06 00:59:53;;;;;;;3.27;1.20;;;;;;;5.45;71.05;100673.10;1722077;81;20940;-51
2021/09/06 01:02:20;;;;;;;1.90;0.90;;;;;;;5.46;71.04;100677.09;1723788;81;21065;-52
2021/09/06 01:04:48;;;;;;;1.53;1.07;;;;;;;5.46;71.02;100678.42;1719030;81;20986;-51
2021/09/06 01:07:19;;;;;;;2.80;1.20;;;;;;;5.44;71.03;100673.59;1717086;81;21598;-51
2021/09/06 01:09:47;;;;;;;1.33;1.00;;;;;;;5.43;71.04;100678.48;1716631;81;21054;-51
2021/09/06 01:12:15;;;;;;;1.57;1.13;;;;;;;5.42;71.00;100681.17;1716682;81;21057;-51
2021/09/06 01:14:44;;;;;;;1.90;1.30;;;;;;;5.40;70.93;100679.85;1724013;81;21315;-51
2021/09/06 01:17:11;;;;;;;1.80;1.50;;;;;;;5.36;70.93;100674.09;1717335;81;21414;-51
2021/09/06 01:19:39;;;;;;;2.50;1.07;;;;;;;5.33;70.98;100676.83;1718317;81;21158;-51
2021/09/06 01:22:07;;;;;;;1.57;0.93;;;;;;;5.28;70.94;100678.20;1716284;81;21084;-50
2021/09/06 01:24:43;;;;;;;1.87;0.80;;;;;;;5.24;70.90;100679.61;1716735;81;21070;-52
2021/09/06 01:27:11;;;;;;;1.00;0.83;;;;;;;5.19;70.96;100680.98;1712031;81;21043;-51
2021/09/06 01:29:39;;;;;;;3.00;1.00;;;;;;;5.17;71.11;100683.26;1718225;81;21065;-51
2021/09/06 01:32:07;;;;;;;1.83;0.80;;;;;;;5.16;71.20;100691.71;1718224;81;21660;-51
2021/09/06 01:34:34;;;;;;;1.50;0.80;;;;;;;5.15;71.27;100683.27;1721569;81;21168;-51
2021/09/06 01:37:00;;;;;;;1.43;0.90;;;;;;;5.17;71.20;100685.47;1718729;81;21161;-51
2021/09/06 01:39:27;;;;;;;2.00;0.90;;;;;;;5.19;71.20;100687.66;1717519;81;22806;-52
2021/09/06 01:41:54;;;;;;;1.90;0.80;;;;;;;5.21;71.14;100686.30;1717430;81;21537;-51
2021/09/06 01:44:21;;;;;;;7.23;2.50;;;;;;;5.21;71.02;100684.52;1720173;81;22502;-51
2021/09/06 01:46:47;;;;;;;1.67;1.00;;;;;;;5.19;70.89;100688.98;1716147;81;21073;-52
2021/09/06 01:49:14;;;;;;;3.70;1.00;;;;;;;5.17;70.85;100685.47;1717946;81;21126;-51
2021/09/06 01:51:44;;;;;;;3.27;1.10;;;;;;;5.15;70.82;100693.06;1718902;81;21351;-51
2021/09/06 01:54:11;;;;;;;3.43;1.70;;;;;;;5.11;70.96;100693.98;1721227;81;21135;-51
2021/09/06 01:56:38;;;;;;;4.13;1.00;;;;;;;5.07;70.90;100689.14;1718582;81;21115;-51
2021/09/06 01:59:05;;;;;;;1.50;0.90;;;;;;;5.03;70.86;100692.73;1717961;81;21543;-50
2021/09/06 02:01:32;;;;;;;4.10;1.00;;;;;;;4.98;70.86;100697.70;1719960;81;21500;-50
2021/09/06 02:03:58;;;;;;;2.73;1.03;;;;;;;4.94;70.94;100688.37;1688344;83;21417;-51
2021/09/06 02:06:25;;;;;;;2.87;0.90;;;;;;;4.94;71.04;100691.48;1671520;83;22262;-51
2021/09/06 02:08:58;;;;;;;4.05;1.00;;;;;;;4.94;71.16;100692.83;1669203;83;21563;-51
2021/09/06 02:11:27;;;;;;;3.87;0.90;;;;;;;4.97;71.20;100695.47;1668561;83;21390;-51
2021/09/06 02:13:55;;;;;;;2.00;0.90;;;;;;;4.99;71.27;100695.47;1718503;81;21109;-51
2021/09/06 02:16:21;;;;;;;1.73;0.90;;;;;;;5.00;71.20;100695.45;1715473;81;21128;-51
2021/09/06 02:18:48;;;;;;;2.30;1.20;;;;;;;5.01;71.06;100697.67;1716978;81;21506;-51
2021/09/06 02:21:15;;;;;;;2.03;0.97;;;;;;;4.99;70.97;100695.47;1719756;81;21476;-51
2021/09/06 02:23:45;;;;;;;1.97;1.23;;;;;;;4.97;70.98;100694.59;1717413;81;20986;-50
2021/09/06 02:26:12;;;;;;;2.20;1.50;;;;;;;4.95;71.09;100697.27;1716998;81;21615;-50
2021/09/06 02:28:39;;;;;;;2.43;1.40;;;;;;;4.93;71.00;100701.76;1721087;81;21164;-51
2021/09/06 02:31:07;;;;;;;3.37;1.30;;;;;;;4.90;71.04;100697.78;1717653;81;21581;-50
2021/09/06 02:33:41;;;;;;;1.70;1.30;;;;;;;4.85;71.09;100703.14;1712303;81;21133;-51
2021/09/06 02:36:11;;;;;;;2.50;1.00;;;;;;;4.82;71.17;100704.98;1716842;81;21077;-51
2021/09/06 02:38:38;;;;;;;1.50;0.93;;;;;;;4.79;71.23;100707.21;1715122;81;21095;-51
2021/09/06 02:41:06;;;;;;;1.60;1.00;;;;;;;4.77;71.27;100704.11;1680072;83;21703;-51
2021/09/06 02:43:33;;;;;;;4.63;1.30;;;;;;;4.75;71.40;100712.61;1669004;83;21530;-51
2021/09/06 02:46:00;;;;;;;1.87;1.10;;;;;;;4.75;71.47;100709.94;1670437;83;22746;-51
2021/09/06 02:48:26;;;;;;;1.30;0.80;;;;;;;4.77;71.63;100718.78;1719874;81;20982;-51
2021/09/06 02:50:55;;;;;;;1.30;1.10;;;;;;;4.78;71.72;100719.22;1718373;81;21054;-51
2021/09/06 02:53:23;;;;;;;1.30;1.00;;;;;;;4.80;71.80;100721.44;1721538;81;21067;-50
2021/09/06 02:55:50;;;;;;;2.30;1.10;;;;;;;4.81;71.83;100716.54;1718440;81;21034;-51
2021/09/06 02:58:17;;;;;;;4.03;1.10;;;;;;;4.83;71.82;100718.75;1716824;81;21116;-51
2021/09/06 03:00:44;;;;;;;4.20;1.00;;;;;;;4.84;71.81;100721.86;1721562;81;21088;-50
2021/09/06 03:03:10;;;;;;;1.67;0.93;;;;;;;4.83;71.86;100724.97;1694193;82;21066;-51
2021/09/06 03:05:38;;;;;;;1.80;1.20;;;;;;;4.83;71.88;100722.75;1715922;81;21115;-50
2021/09/06 03:08:05;;;;;;;2.30;1.20;;;;;;;4.81;71.94;100726.77;1718101;81;21049;-51
2021/09/06 03:10:31;;;;;;;4.17;1.13;;;;;;;4.81;71.96;100724.54;1718079;81;21126;-50
2021/09/06 03:12:58;;;;;;;2.73;1.00;;;;;;;4.79;72.02;100731.22;1716646;81;21412;-51
2021/09/06 03:15:25;;;;;;;2.17;0.80;;;;;;;4.80;72.05;100733.44;1717570;81;21079;-51
2021/09/06 03:17:53;;;;;;;1.30;0.80;;;;;;;4.79;72.17;100733.89;1715831;81;21090;-50
2021/09/06 03:20:22;;;;;;;4.03;0.80;;;;;;;4.80;72.31;100738.77;1717204;81;21105;-50
2021/09/06 03:22:48;;;;;;;1.80;1.00;;;;;;;4.83;72.43;100732.97;1714763;81;21098;-50
2021/09/06 03:25:17;;;;;;;2.77;1.00;;;;;;;4.87;72.52;100733.81;1719569;81;20949;-51
2021/09/06 03:27:44;;;;;;;1.97;1.10;;;;;;;4.91;72.64;100739.12;1717725;81;21010;-51
2021/09/06 03:30:11;;;;;;;1.90;1.00;;;;;;;4.94;72.67;100736.84;1695282;81;21067;-51
2021/09/06 03:32:41;;;;;;;1.67;1.03;;;;;;;4.99;72.70;100739.48;1720616;81;21806;-51
2021/09/06 03:35:11;;;;;;;1.50;0.93;;;;;;;5.02;72.71;100738.98;1722108;81;21443;-50
2021/09/06 03:37:37;;;;;;;1.70;1.00;;;;;;;5.03;72.73;100739.43;1714538;81;20910;-51
2021/09/06 03:40:07;;;;;;;2.90;1.20;;;;;;;5.04;72.78;100734.53;1664150;83;20990;-51
2021/09/06 03:42:33;;;;;;;2.47;1.20;;;;;;;5.05;72.86;100738.08;1659799;84;20972;-51
2021/09/06 03:45:00;;;;;;;2.93;1.20;;;;;;;5.05;72.94;100743.42;1667282;83;20951;-51
2021/09/06 03:47:27;;;;;;;1.70;0.90;;;;;;;5.06;73.09;100738.52;1720226;81;21009;-51
2021/09/06 03:49:55;;;;;;;2.10;0.80;;;;;;;5.08;73.25;100740.28;1720763;81;21077;-50
2021/09/06 03:52:21;;;;;;;6.90;1.67;;;;;;;5.11;73.37;100742.90;1725403;81;21512;-50
2021/09/06 03:54:48;;;;;;;3.60;1.30;;;;;;;5.15;73.51;100743.32;1719409;81;20907;-50
2021/09/06 03:57:15;;;;;;;5.20;1.10;;;;;;;5.19;73.67;100738.36;1716806;81;22086;-51
2021/09/06 03:59:41;;;;;;;1.87;0.90;;;;;;;5.24;73.76;100741.89;1717855;81;21520;-50
2021/09/06 04:02:08;;;;;;;2.10;1.27;;;;;;;5.30;73.90;100747.59;1719163;81;21026;-50
2021/09/06 04:04:35;;;;;;;1.90;1.30;;;;;;;5.37;74.00;100751.08;1721618;81;20956;-50
2021/09/06 04:07:03;;;;;;;6.27;1.20;;;;;;;5.41;74.08;100758.17;1718305;81;20908;-51
2021/09/06 04:09:31;;;;;;;4.30;1.57;;;;;;;5.45;74.20;100754.55;1715990;81;21519;-50
2021/09/06 04:11:58;;;;;;;2.00;1.10;;;;;;;5.48;74.29;100759.41;1711877;81;21659;-53
2021/09/06 04:14:27;;;;;;;4.50;1.30;;;;;;;5.50;74.38;100761.62;1720201;80;21410;-51
2021/09/06 04:16:53;;;;;;;2.67;1.20;;;;;;;5.51;74.50;100759.38;1715814;81;21030;-50
2021/09/06 04:19:20;;;;;;;1.60;1.23;;;;;;;5.52;74.56;100765.16;1713284;81;21311;-50
2021/09/06 04:21:47;;;;;;;2.33;0.90;;;;;;;5.54;74.62;100764.67;1713828;81;21371;-50
2021/09/06 04:24:14;;;;;;;3.10;1.00;;;;;;;5.58;74.67;100761.52;1715302;81;21123;-51
2021/09/06 04:26:40;;;;;;;2.90;0.90;;;;;;;5.62;74.73;100765.91;1717360;81;21101;-51
2021/09/06 04:29:07;;;;;;;1.40;0.90;;;;;;;5.65;74.77;100769.44;1712635;81;21094;-50
2021/09/06 04:31:34;;;;;;;1.90;0.90;;;;;;;5.69;74.85;100771.19;1712862;81;21114;-50
2021/09/06 04:34:01;;;;;;;3.77;1.00;;;;;;;5.74;74.91;100770.23;1714060;81;21652;-50
2021/09/06 04:36:28;;;;;;;1.70;1.00;;;;;;;5.78;75.00;100766.63;1716141;81;22041;-50
2021/09/06 04:38:55;;;;;;;2.33;1.17;;;;;;;5.83;75.05;100770.12;1711658;81;21364;-51
2021/09/06 04:41:21;;;;;;;2.63;1.37;;;;;;;5.89;75.03;100779.41;1715993;81;21009;-51
2021/09/06 04:43:48;;;;;;;5.57;1.67;;;;;;;5.90;75.12;100769.16;1715560;81;21313;-51
2021/09/06 04:46:15;;;;;;;3.50;1.90;;;;;;;5.93;75.21;100777.16;1715509;81;21470;-50
2021/09/06 04:48:43;;;;;;;2.77;2.47;;;;;;;5.98;75.25;100781.52;1715591;81;21163;-50
2021/09/06 04:51:11;;;;;;;2.70;2.07;;;;;;;6.01;75.28;100776.14;1713733;81;21058;-51
2021/09/06 04:53:40;;;;;;;2.00;1.50;;;;;;;6.05;75.25;100781.86;1716067;81;21787;-50
2021/09/06 04:56:10;;;;;;;2.33;2.13;;;;;;;6.13;75.26;100783.09;1720092;81;21688;-49
2021/09/06 04:58:39;;;;;;;3.23;1.77;;;;;;;6.20;75.34;100770.55;1715221;81;21050;-50
2021/09/06 05:01:07;;;;;;;4.33;2.87;;;;;;;6.28;75.48;100780.23;1721592;81;21202;-50
2021/09/06 05:03:33;;;;;;;9.50;3.73;;;;;;;6.38;75.61;100782.31;1718207;81;21452;-49
2021/09/06 05:06:01;;;;;;;4.43;4.03;;;;;;;6.50;75.68;100785.23;1723632;81;20935;-50
2021/09/06 05:08:28;;;;;;;5.13;4.63;;;;;;;6.61;75.78;100783.30;1720548;81;21061;-50
2021/09/06 05:10:57;;;;;;;4.47;3.97;;;;;;;6.73;75.88;100779.95;1717132;81;21607;-50
2021/09/06 05:13:24;;;;;;;5.70;4.70;;;;;;;6.86;76.04;100773.06;1715619;81;21102;-50
2021/09/06 05:15:51;;;;;;;5.87;4.63;;;;;;;6.99;76.20;100779.97;1719602;81;21568;-50
2021/09/06 05:18:20;;;;;;;4.03;3.63;;;;;;;7.09;76.31;100778.45;1720669;81;20983;-50
2021/09/06 05:20:48;;;;;;;5.40;2.97;;;;;;;7.23;76.37;100778.19;1715788;81;21065;-51
2021/09/06 05:23:14;;;;;;;8.40;3.87;;;;;;;7.38;76.43;100776.58;1716631;81;21143;-51
2021/09/06 05:25:41;;;;;;;5.03;3.13;;;;;;;7.50;76.51;100774.10;1718280;81;21152;-50
2021/09/06 05:28:07;;;;;;;3.63;3.03;;;;;;;7.64;76.60;100775.19;1719359;81;21311;-50
2021/09/06 05:30:34;;;;;;;4.57;3.47;;;;;;;7.77;76.67;100776.69;1721642;81;21133;-50
2021/09/06 05:33:00;;;;;;;2.97;2.67;;;;;;;7.90;76.73;100776.88;1722325;81;21919;-50
2021/09/06 05:35:27;;;;;;;4.33;3.33;;;;;;;8.05;76.85;100774.32;1720267;81;22659;-50
2021/09/06 05:37:53;;;;;;;6.47;4.47;;;;;;;8.17;76.79;100783.42;1720002;81;21151;-50
2021/09/06 05:40:22;;;;;;;5.53;4.07;;;;;;;8.29;76.77;100778.68;1718693;81;21386;-50
2021/09/06 05:42:48;;;;;;;4.27;3.80;;;;;;;8.42;76.77;100777.11;1720459;81;21062;-50
2021/09/06 05:45:15;;;;;;;6.00;3.60;;;;;;;8.53;76.68;100784.42;1716574;81;21093;-50
2021/09/06 05:47:42;;;;;;;3.20;2.63;;;;;;;8.63;76.79;100778.81;1719744;81;21039;-50
2021/09/06 05:50:17;;;;;;;3.97;3.00;;;;;;;8.73;76.60;100774.98;1717962;81;21456;-50
2021/09/06 05:52:42;;;;;;;2.73;2.53;;;;;;;8.85;76.50;100782.30;1713852;81;21073;-51
2021/09/06 05:55:12;;;;;;;4.03;2.80;;;;;;;8.99;76.42;100786.88;1717006;81;21476;-51
2021/09/06 05:57:39;;;;;;;5.43;2.70;;;;;;;9.12;76.24;100791.00;1712485;81;21057;-51
2021/09/06 06:00:08;;;;;;;6.37;3.70;;;;;;;9.27;76.07;100785.71;1717941;81;20989;-51
2021/09/06 06:02:36;;;;;;;5.28;4.45;;;;;;;9.40;76.11;100785.78;1715670;81;21076;-51
2021/09/06 06:05:05;;;;;;;4.67;3.33;;;;;;;9.51;75.78;100790.42;1715359;81;21309;-51
2021/09/06 06:10:10;;;;;;;3.07;1.90;;;;;;;9.79;74.73;100790.05;1850851;75;22516;-52
2021/09/06 06:12:37;;;;;;;4.47;2.25;;;;;;;9.84;74.32;100789.93;1818841;77;20855;-52
2021/09/06 06:15:05;;;;;;;5.45;2.15;;;;;;;9.91;74.12;100796.89;1801858;77;21071;-52
2021/09/06 06:17:31;;;;;;;2.25;1.42;;;;;;;9.99;73.94;100793.97;1775445;78;21012;-52
2021/09/06 06:19:58;;;;;;;1.87;1.22;;;;;;;10.08;73.78;100799.08;1779443;78;21439;-52
2021/09/06 06:22:43;;;;;;;1.50;1.00;;;;;;;10.17;73.93;100794.35;1777381;78;20936;-52
2021/09/06 06:25:26;;;;;;;5.10;1.27;;;;;;;10.30;73.77;100797.99;1770519;78;20965;-53
2021/09/06 06:27:56;;;;;;;1.57;1.15;;;;;;;10.43;73.75;100794.90;1775601;78;20873;-52
2021/09/06 06:30:25;;;;;;;2.85;0.90;;;;;;;10.56;73.52;100800.30;1780166;78;20898;-52
2021/09/06 06:32:52;;;;;;;1.07;0.80;;;;;;;10.69;73.17;100790.50;1732259;80;21021;-52
2021/09/06 06:35:20;;;;;;;2.05;0.60;;;;;;;10.78;72.71;100797.82;1762957;79;20874;-52
2021/09/06 06:37:47;;;;;;;1.98;0.90;;;;;;;10.86;72.02;100797.10;1770316;79;20969;-52
2021/09/06 06:40:14;;;;;;;1.20;0.75;;;;;;;10.94;71.41;100794.16;1743530;79;21052;-52
2021/09/06 06:42:41;;;;;;;1.77;0.60;;;;;;;11.02;71.33;100793.42;1741757;79;20951;-52
2021/09/06 06:45:10;;;;;;;3.98;0.78;;;;;;;11.10;70.57;100796.75;1742599;79;21471;-52
2021/09/06 06:47:39;;;;;;;0.98;0.60;;;;;;;11.19;69.99;100791.05;1745233;79;21622;-52
2021/09/06 06:50:06;;;;;;;2.55;0.50;;;;;;;11.25;69.67;100788.12;1715269;80;21400;-52
2021/09/06 06:52:35;;;;;;;3.17;0.60;;;;;;;11.33;68.72;100791.44;1740237;79;21039;-52
2021/09/06 06:55:02;;;;;;;1.35;0.50;;;;;;;11.42;68.42;100787.53;1745276;79;21555;-52
2021/09/06 06:57:29;;;;;;;0.70;0.40;;;;;;;11.53;68.06;100792.55;1707560;81;21628;-52
2021/09/06 06:59:55;;;;;;;0.70;0.40;;;;;;;11.64;67.26;100796.64;1738848;79;21498;-52
2021/09/06 07:02:22;;;;;;;1.77;0.40;;;;;;;11.76;66.65;100795.33;1739347;79;21072;-52
2021/09/06 07:04:48;;;;;;;0.47;0.28;;;;;;;11.87;65.96;100791.78;1705387;81;21151;-52
2021/09/06 07:07:15;;;;;;;1.15;0.40;;;;;;;11.98;65.68;100788.22;1737477;79;21096;-52
2021/09/06 07:09:42;;;;;;;0.40;0.30;;;;;;;12.09;64.71;100785.09;1741244;79;21129;-52
2021/09/06 07:12:09;;;;;;;0.50;0.40;;;;;;;12.18;64.27;100790.14;1735452;80;21131;-52
2021/09/06 07:14:38;;;;;;;1.65;0.50;;;;;;;12.27;63.77;100795.19;1764368;78;21044;-52
2021/09/06 07:17:05;;;;;;;0.80;0.57;;;;;;;12.34;63.13;100787.25;1739171;80;22614;-52
2021/09/06 07:19:31;;;;;;;3.15;0.62;;;;;;;12.41;62.74;100790.16;1760755;78;21176;-52
2021/09/06 07:22:00;;;;;;;1.30;0.60;;;;;;;12.47;62.39;100793.07;1739023;80;21094;-52
2021/09/06 07:24:29;;;;;;;6.37;0.60;;;;;;;12.56;62.39;100789.13;1764803;78;21048;-53
2021/09/06 07:26:56;;;;;;;0.75;0.50;;;;;;;12.62;62.07;100788.40;1764487;78;21055;-52
2021/09/06 07:29:22;;;;;;;2.52;0.30;;;;;;;12.68;61.67;100785.44;1741998;80;21130;-52
2021/09/06 07:31:49;;;;;;;0.50;0.40;;;;;;;12.74;61.20;100779.81;1746505;80;21087;-52
2021/09/06 07:34:16;;;;;;;0.40;0.30;;;;;;;12.83;61.03;100776.73;1740308;80;21072;-52
2021/09/06 07:36:43;;;;;;;1.57;0.20;;;;;;;12.94;60.60;100784.84;1741261;80;21071;-52
2021/09/06 07:39:11;;;;;;;0.60;0.30;;;;;;;13.02;59.94;100785.40;1738209;80;21047;-52
2021/09/06 07:41:37;;;;;;;0.65;0.28;;;;;;;13.11;60.01;100779.14;1740221;80;21119;-52
2021/09/06 07:44:04;;;;;;;0.30;0.20;;;;;;;13.22;59.14;100780.08;1753503;79;21124;-52
2021/09/06 07:46:30;;;;;;;0.30;0.20;;;;;;;13.30;58.67;100784.69;1752274;79;21421;-57
2021/09/06 07:48:59;;;;;;;0.53;0.20;;;;;;;13.38;58.04;100781.64;1754566;79;21100;-52
2021/09/06 07:51:27;;;;;;;0.40;0.13;;;;;;;13.42;57.46;100785.52;1760673;79;21597;-52
2021/09/06 07:53:53;;;;;;;1.05;0.20;;;;;;;13.47;56.86;100790.23;1752287;79;21149;-52
2021/09/06 07:56:20;;;;;;;0.55;0.20;;;;;;;13.50;56.99;100792.82;1757348;79;21089;-53
2021/09/06 07:58:48;;;;;;;1.05;0.20;;;;;;;13.55;56.74;100788.55;1747087;80;21087;-52
2021/09/06 08:01:14;;;;;;;0.20;0.10;;;;;;;13.58;56.11;100785.25;1747917;80;21502;-52
2021/09/06 08:03:41;;;;;;;0.25;0.20;;;;;;;13.62;56.04;100781.91;1742663;80;22955;-51
2021/09/06 08:06:08;;;;;;;0.20;0.20;;;;;;;13.65;55.37;100785.84;1737979;80;22487;-52
2021/09/06 08:08:34;;;;;;;0.10;0.10;;;;;;;13.69;55.64;100787.48;1764068;78;21606;-52
2021/09/06 08:11:00;;;;;;;14.70;0.30;;;;;;;13.74;55.47;100786.79;1758379;78;21391;-53
2021/09/06 08:13:29;;;;;;;0.30;0.10;;;;;;;13.80;55.45;100784.27;1746304;79;21071;-52
2021/09/06 08:15:56;;;;;;;0.30;0.10;;;;;;;13.87;55.30;100789.80;1748713;79;21108;-53
2021/09/06 08:18:22;;;;;;;0.30;0.10;;;;;;;13.94;54.27;100784.55;1750122;79;21113;-52
2021/09/06 08:20:50;;;;;;;0.40;0.20;;;;;;;14.03;53.91;100781.89;1748720;79;21060;-52
2021/09/06 08:23:16;;;;;;;0.28;0.20;;;;;;;14.12;53.53;100784.18;1747599;79;21084;-52
2021/09/06 08:25:43;;;;;;;0.68;0.20;;;;;;;14.17;52.75;100780.77;1745889;79;21091;-52
2021/09/06 08:28:10;;;;;;;1.00;0.20;;;;;;;14.20;52.36;100777.45;1744928;79;21075;-52
2021/09/06 08:30:37;;;;;;;0.25;0.13;;;;;;;14.20;52.36;100777.45;1751054;79;21487;-53
2021/09/06 08:33:03;;;;;;;0.30;0.20;;;;;;;14.22;52.05;100780.06;1749487;79;21067;-53
2021/09/06 08:35:31;;;;;;;3.55;0.20;;;;;;;14.24;51.63;100779.05;1756542;79;21083;-52
2021/09/06 08:37:57;;;;;;;0.88;0.20;;;;;;;14.28;51.64;100783.39;1750590;79;21470;-52
2021/09/06 08:40:24;;;;;;;0.20;0.20;;;;;;;14.33;51.33;100785.39;1745812;79;21043;-53
2021/09/06 08:42:52;;;;;;;0.82;0.15;;;;;;;14.36;51.20;100771.71;1750852;79;20949;-53
2021/09/06 08:45:20;;;;;;;0.30;0.20;;;;;;;14.43;50.76;100775.51;1752935;79;21103;-52
2021/09/06 08:47:46;;;;;;;0.30;0.20;;;;;;;14.48;49.44;100774.80;1749365;79;21027;-52
2021/09/06 08:50:13;;;;;;;0.53;0.20;;;;;;;14.53;49.21;100770.05;1748508;79;21578;-53
2021/09/06 08:52:41;;;;;;;0.20;0.17;;;;;;;14.56;49.27;100771.24;1724210;79;21380;-52
2021/09/06 08:55:09;;;;;;;0.20;0.20;;;;;;;14.60;48.57;100770.16;1696065;79;21213;-52
2021/09/06 08:57:35;;;;;;;0.20;0.13;;;;;;;14.61;48.12;100771.91;1749901;79;21076;-53
2021/09/06 09:00:04;;;;;;;0.20;0.20;;;;;;;14.60;47.66;100773.75;1747103;79;21144;-52
2021/09/06 09:02:35;;;;;;;0.68;0.20;;;;;;;14.61;47.54;100776.86;1747204;79;21385;-52
2021/09/06 09:05:09;;;;;;;0.15;0.10;;;;;;;14.58;47.24;100773.41;1751407;79;21053;-53
2021/09/06 09:07:40;;;;;;;0.30;0.20;;;;;;;14.52;47.00;100780.02;1752118;79;21123;-52
2021/09/06 09:10:20;;;;;;;0.40;0.20;;;;;;;14.47;47.33;100774.39;1748258;79;21585;-53
2021/09/06 09:13:08;;;;;;;0.20;0.17;;;;;;;14.47;46.65;100783.88;1747871;79;21099;-52
2021/09/06 09:15:53;;;;;;;0.20;0.20;;;;;;;14.50;46.63;100779.67;1660822;85;21049;-52
2021/09/06 09:18:28;;;;;;;0.10;0.10;;;;;;;14.54;45.97;100784.89;1722371;79;22255;-52
2021/09/06 09:21:01;;;;;;;0.30;0.10;;;;;;;14.59;45.55;100778.75;1738123;79;22371;-52
2021/09/06 09:23:47;;;;;;;0.93;0.10;;;;;;;14.66;45.28;100778.86;1736771;79;21828;-51
2021/09/06 09:26:21;;;;;;;0.30;0.20;;;;;;;14.79;44.94;100771.02;1740276;79;21293;-52
2021/09/06 09:29:17;;;;;;;0.30;0.20;;;;;;;14.95;45.15;100768.41;1738326;79;20953;-52
2021/09/06 09:32:04;;;;;;;0.20;0.13;;;;;;;15.10;44.52;100764.92;1743404;79;20939;-52
2021/09/06 09:34:39;;;;;;;0.95;0.20;;;;;;;15.19;42.84;100775.78;1721585;79;21805;-52
2021/09/06 09:37:08;;;;;;;0.50;0.20;;;;;;;15.20;42.72;100775.70;1744575;79;20965;-53
2021/09/06 09:39:34;;;;;;;3.35;0.20;;;;;;;15.18;41.65;100774.02;1744762;79;20945;-53
2021/09/06 09:42:08;;;;;;;0.25;0.17;;;;;;;15.15;41.04;100769.14;1747658;79;21501;-52
2021/09/06 09:44:47;;;;;;;0.13;0.10;;;;;;;15.11;40.40;100765.33;1744544;79;20937;-52
2021/09/06 09:47:27;;;;;;;0.23;0.20;;;;;;;15.07;40.15;100765.95;1691995;79;21122;-52
2021/09/06 09:49:55;;;;;;;0.20;0.20;;;;;;;14.99;40.33;100768.17;1747580;79;20910;-53
2021/09/06 09:52:22;;;;;;;0.30;0.20;;;;;;;14.91;40.13;100769.03;1748030;79;20937;-53
2021/09/06 09:54:53;;;;;;;0.20;0.10;;;;;;;14.84;40.60;100773.48;1745333;79;20918;-52
2021/09/06 09:57:25;;;;;;;0.30;0.20;;;;;;;14.78;40.61;100780.09;1744084;79;20941;-53
2021/09/06 09:59:52;;;;;;;0.37;0.20;;;;;;;14.71;40.72;100774.58;1746087;79;21712;-54
2021/09/06 10:02:25;;;;;;;0.30;0.20;;;;;;;14.63;40.81;100774.92;1749109;79;20937;-51
2021/09/06 10:04:59;;;;;;;0.25;0.20;;;;;;;14.55;40.61;100770.36;1701813;79;20929;-52
2021/09/06 10:07:26;;;;;;;0.40;0.30;;;;;;;14.50;40.91;100769.72;1745640;79;23358;-53
2021/09/06 10:09:53;;;;;;;0.30;0.20;;;;;;;14.46;40.87;100769.45;1746506;79;21505;-52
2021/09/06 10:12:27;;;;;;;0.40;0.20;;;;;;;14.45;40.99;100766.84;1747247;80;21176;-52
2021/09/06 10:14:57;;;;;;;0.40;0.30;;;;;;;14.41;40.24;100773.34;1750089;80;21430;-52
2021/09/06 10:17:39;;;;;;;0.33;0.20;;;;;;;14.38;41.02;100773.88;1748507;80;21088;-52
2021/09/06 10:20:17;;;;;;;0.60;0.20;;;;;;;14.39;42.08;100777.47;1746455;80;21083;-52
2021/09/06 10:22:46;;;;;;;0.30;0.20;;;;;;;14.39;41.49;100782.89;1744802;79;21661;-52
2021/09/06 10:25:19;;;;;;;0.40;0.20;;;;;;;14.39;40.44;100784.24;1747540;80;21084;-53
2021/09/06 10:28:05;;;;;;;1.15;0.30;;;;;;;14.37;39.81;100784.78;1750968;80;21016;-52
2021/09/06 10:30:40;;;;;;;0.30;0.20;;;;;;;14.35;40.39;100781.26;1748177;80;21685;-52
2021/09/06 10:33:10;;;;;;;0.20;0.20;;;;;;;14.33;41.26;100785.86;1744364;80;21065;-52
2021/09/06 10:35:37;;;;;;;1.57;0.20;;;;;;;14.30;41.04;100780.58;1747196;80;21106;-53
2021/09/06 10:38:12;;;;;;;0.30;0.20;;;;;;;14.24;40.70;100776.34;1747276;79;22900;-52
2021/09/06 10:40:42;;;;;;;0.30;0.20;;;;;;;14.21;41.42;100783.24;1749439;79;21477;-53
2021/09/06 10:43:20;;;;;;;0.30;0.20;;;;;;;14.20;41.02;100782.87;1754917;80;21119;-52
2021/09/06 10:45:51;;;;;;;0.35;0.20;;;;;;;14.22;41.13;100782.77;1747362;80;21071;-52
2021/09/06 10:48:27;;;;;;;0.40;0.20;;;;;;;14.21;41.92;100776.47;1745549;81;21147;-52
2021/09/06 10:50:54;;;;;;;0.40;0.20;;;;;;;14.26;41.66;100785.28;1748541;80;21810;-52
2021/09/06 10:53:23;;;;;;;0.95;0.20;;;;;;;14.30;41.53;100781.94;1763885;78;21405;-52
2021/09/06 10:55:56;;;;;;;0.25;0.20;;;;;;;14.35;42.95;100787.55;1752155;79;21067;-52
2021/09/06 10:58:27;;;;;;;5.33;0.30;;;;;;;14.38;42.39;100786.07;1752018;79;20960;-52
2021/09/06 11:00:58;;;;;;;2.92;0.30;;;;;;;14.47;41.77;100782.52;1749320;79;21087;-52
2021/09/06 11:03:30;;;;;;;0.50;0.40;;;;;;;14.47;41.77;100782.52;1753495;79;21307;-52
2021/09/06 11:05:58;;;;;;;1.05;0.30;;;;;;;14.52;41.17;100786.78;1748294;79;21123;-53
2021/09/06 11:08:27;;;;;;;2.00;0.30;;;;;;;14.61;42.06;100784.11;1761670;78;21640;-53
2021/09/06 11:10:58;;;;;;;0.50;0.30;;;;;;;14.67;41.99;100774.31;1745251;79;21049;-52
2021/09/06 11:13:45;;;;;;;0.40;0.30;;;;;;;14.73;42.20;100772.17;1741781;80;20989;-53
2021/09/06 11:16:16;;;;;;;0.80;0.30;;;;;;;14.81;41.84;100766.84;1745249;80;20972;-53
2021/09/06 11:18:45;;;;;;;0.85;0.40;;;;;;;14.87;42.08;100757.08;1747238;80;20925;-52
2021/09/06 11:21:12;;;;;;;0.35;0.30;;;;;;;14.93;42.05;100758.12;1746859;79;22613;-53
2021/09/06 11:23:43;;;;;;;2.20;0.37;;;;;;;15.01;42.40;100758.13;1749243;79;21808;-53
2021/09/06 11:26:23;;;;;;;0.62;0.30;;;;;;;15.11;42.27;100755.36;1764681;78;21159;-53
2021/09/06 11:28:49;;;;;;;2.75;0.30;;;;;;;15.22;41.58;100747.16;1764862;78;21088;-52
2021/09/06 11:31:21;;;;;;;0.33;0.20;;;;;;;15.31;42.46;100746.17;1741191;80;21065;-53
2021/09/06 11:33:58;;;;;;;0.20;0.20;;;;;;;15.40;41.63;100748.41;1744146;80;21127;-52
2021/09/06 11:36:25;;;;;;;0.47;0.20;;;;;;;15.46;41.29;100745.40;1736691;80;20957;-53
2021/09/06 11:38:53;;;;;;;0.80;0.20;;;;;;;15.50;40.03;100748.81;1738796;80;20946;-53